sensor_id;sensor_type;location;lat;lon;timestamp;temperature;humidity
20081;DHT22;10200;49.232;9.222;2023-06-01T00:00:15;17.50;68.20
20081;DHT22;10200;49.232;9.222;2023-06-01T00:02:41;17.40;68.40
20081;DHT22;10200;49.232;9.222;2023-06-01T00:05:07;17.40;68.60
20081;DHT22;10200;49.232;9.222;2023-06-01T00:07:32;17.40;68.80
20081;DHT22;10200;49.232;9.222;2023-06-01T00:09:59;17.40;68.80
20081;DHT22;10200;49.232;9.222;2023-06-01T00:12:28;17.40;68.80
20081;DHT22;10200;49.232;9.222;2023-06-01T00:14:53;17.40;68.60
20081;DHT22;10200;49.232;9.222;2023-06-01T00:17:19;17.30;69.00
20081;DHT22;10200;49.232;9.222;2023-06-01T00:19:45;17.30;69.10
20081;DHT22;10200;49.232;9.222;2023-06-01T00:22:11;17.20;69.30
20081;DHT22;10200;49.232;9.222;2023-06-01T00:24:37;17.20;69.60
20081;DHT22;10200;49.232;9.222;2023-06-01T00:27:03;17.10;69.70
20081;DHT22;10200;49.232;9.222;2023-06-01T00:29:29;17.10;70.00
20081;DHT22;10200;49.232;9.222;2023-06-01T00:31:55;17.00;70.30
20081;DHT22;10200;49.232;9.222;2023-06-01T00:34:20;17.00;70.70
20081;DHT22;10200;49.232;9.222;2023-06-01T00:36:46;16.90;70.80
20081;DHT22;10200;49.232;9.222;2023-06-01T00:39:12;16.80;71.10
20081;DHT22;10200;49.232;9.222;2023-06-01T00:41:37;16.80;71.80
20081;DHT22;10200;49.232;9.222;2023-06-01T00:44:03;16.70;72.20
20081;DHT22;10200;49.232;9.222;2023-06-01T00:46:30;16.80;72.50
20081;DHT22;10200;49.232;9.222;2023-06-01T00:48:57;16.80;72.50
20081;DHT22;10200;49.232;9.222;2023-06-01T00:51:23;16.70;72.40
20081;DHT22;10200;49.232;9.222;2023-06-01T00:53:49;16.70;72.40
20081;DHT22;10200;49.232;9.222;2023-06-01T00:56:17;16.60;72.80
20081;DHT22;10200;49.232;9.222;2023-06-01T00:58:43;16.50;72.90
20081;DHT22;10200;49.232;9.222;2023-06-01T01:01:10;16.50;73.30
20081;DHT22;10200;49.232;9.222;2023-06-01T01:03:49;16.50;73.60
20081;DHT22;10200;49.232;9.222;2023-06-01T01:11:29;16.20;74.80
20081;DHT22;10200;49.232;9.222;2023-06-01T01:14:14;16.20;75.50
20081;DHT22;10200;49.232;9.222;2023-06-01T01:16:49;16.10;75.90
20081;DHT22;10200;49.232;9.222;2023-06-01T01:22:15;16.00;77.10
20081;DHT22;10200;49.232;9.222;2023-06-01T01:30:32;16.00;77.10
20081;DHT22;10200;49.232;9.222;2023-06-01T01:33:01;16.00;77.10
20081;DHT22;10200;49.232;9.222;2023-06-01T01:35:28;15.90;76.60
20081;DHT22;10200;49.232;9.222;2023-06-01T01:37:55;16.00;76.90
20081;DHT22;10200;49.232;9.222;2023-06-01T01:40:21;15.90;76.40
20081;DHT22;10200;49.232;9.222;2023-06-01T01:42:48;15.90;76.70
20081;DHT22;10200;49.232;9.222;2023-06-01T01:45:15;16.00;76.90
20081;DHT22;10200;49.232;9.222;2023-06-01T01:50:36;16.00;76.80
20081;DHT22;10200;49.232;9.222;2023-06-01T01:53:06;16.00;76.80
20081;DHT22;10200;49.232;9.222;2023-06-01T01:55:34;16.00;76.80
20081;DHT22;10200;49.232;9.222;2023-06-01T01:58:01;16.00;76.50
20081;DHT22;10200;49.232;9.222;2023-06-01T02:00:28;16.00;76.30
20081;DHT22;10200;49.232;9.222;2023-06-01T02:02:54;16.00;76.40
20081;DHT22;10200;49.232;9.222;2023-06-01T02:05:20;16.00;76.10
20081;DHT22;10200;49.232;9.222;2023-06-01T02:07:45;15.90;76.10
20081;DHT22;10200;49.232;9.222;2023-06-01T02:10:11;16.00;77.10
20081;DHT22;10200;49.232;9.222;2023-06-01T02:12:37;16.00;76.60
20081;DHT22;10200;49.232;9.222;2023-06-01T02:15:04;15.90;76.30
20081;DHT22;10200;49.232;9.222;2023-06-01T02:17:29;15.90;76.50
20081;DHT22;10200;49.232;9.222;2023-06-01T02:19:55;15.90;76.60
20081;DHT22;10200;49.232;9.222;2023-06-01T02:22:21;15.90;76.60
20081;DHT22;10200;49.232;9.222;2023-06-01T02:24:47;15.90;77.60
20081;DHT22;10200;49.232;9.222;2023-06-01T02:27:12;15.80;76.80
20081;DHT22;10200;49.232;9.222;2023-06-01T02:29:38;15.80;76.70
20081;DHT22;10200;49.232;9.222;2023-06-01T02:32:04;15.80;76.80
20081;DHT22;10200;49.232;9.222;2023-06-01T02:34:30;15.70;77.20
20081;DHT22;10200;49.232;9.222;2023-06-01T02:36:55;15.70;77.50
20081;DHT22;10200;49.232;9.222;2023-06-01T02:39:22;15.60;77.60
20081;DHT22;10200;49.232;9.222;2023-06-01T02:41:48;15.60;77.40
20081;DHT22;10200;49.232;9.222;2023-06-01T02:44:13;15.50;77.90
20081;DHT22;10200;49.232;9.222;2023-06-01T02:46:39;15.50;78.20
20081;DHT22;10200;49.232;9.222;2023-06-01T02:49:04;15.40;78.60
20081;DHT22;10200;49.232;9.222;2023-06-01T02:51:30;15.30;79.20
20081;DHT22;10200;49.232;9.222;2023-06-01T02:53:56;15.20;79.50
20081;DHT22;10200;49.232;9.222;2023-06-01T02:56:22;15.10;80.00
20081;DHT22;10200;49.232;9.222;2023-06-01T02:58:48;15.10;80.30
20081;DHT22;10200;49.232;9.222;2023-06-01T03:01:14;15.00;80.90
20081;DHT22;10200;49.232;9.222;2023-06-01T03:03:39;15.00;81.10
20081;DHT22;10200;49.232;9.222;2023-06-01T03:06:05;15.00;81.60
20081;DHT22;10200;49.232;9.222;2023-06-01T03:08:32;15.00;82.50
20081;DHT22;10200;49.232;9.222;2023-06-01T03:10:58;14.90;82.40
20081;DHT22;10200;49.232;9.222;2023-06-01T03:13:23;14.80;83.00
20081;DHT22;10200;49.232;9.222;2023-06-01T03:15:49;14.80;83.60
20081;DHT22;10200;49.232;9.222;2023-06-01T03:18:16;14.80;83.80
20081;DHT22;10200;49.232;9.222;2023-06-01T03:20:42;14.70;84.10
20081;DHT22;10200;49.232;9.222;2023-06-01T03:23:07;14.70;84.20
20081;DHT22;10200;49.232;9.222;2023-06-01T03:25:33;14.70;84.70
20081;DHT22;10200;49.232;9.222;2023-06-01T03:27:59;14.70;84.60
20081;DHT22;10200;49.232;9.222;2023-06-01T03:30:24;14.70;85.10
20081;DHT22;10200;49.232;9.222;2023-06-01T03:32:50;14.70;84.60
20081;DHT22;10200;49.232;9.222;2023-06-01T03:35:16;14.70;84.90
20081;DHT22;10200;49.232;9.222;2023-06-01T03:37:44;14.70;84.60
20081;DHT22;10200;49.232;9.222;2023-06-01T03:40:10;14.70;84.30
20081;DHT22;10200;49.232;9.222;2023-06-01T03:42:43;14.70;84.20
20081;DHT22;10200;49.232;9.222;2023-06-01T03:45:10;14.70;84.30
20081;DHT22;10200;49.232;9.222;2023-06-01T03:47:37;14.80;84.30
20081;DHT22;10200;49.232;9.222;2023-06-01T03:50:04;14.70;84.30
20081;DHT22;10200;49.232;9.222;2023-06-01T03:52:31;14.70;84.80
20081;DHT22;10200;49.232;9.222;2023-06-01T03:54:59;14.70;84.50
20081;DHT22;10200;49.232;9.222;2023-06-01T03:57:27;14.70;84.90
20081;DHT22;10200;49.232;9.222;2023-06-01T03:59:52;14.70;85.70
20081;DHT22;10200;49.232;9.222;2023-06-01T04:02:18;14.80;85.80
20081;DHT22;10200;49.232;9.222;2023-06-01T04:04:45;14.80;85.40
20081;DHT22;10200;49.232;9.222;2023-06-01T04:07:12;14.80;85.70
20081;DHT22;10200;49.232;9.222;2023-06-01T04:09:44;14.90;85.30
20081;DHT22;10200;49.232;9.222;2023-06-01T04:12:10;14.90;85.20
20081;DHT22;10200;49.232;9.222;2023-06-01T04:14:36;15.00;85.40
20081;DHT22;10200;49.232;9.222;2023-06-01T04:17:03;15.00;85.40
20081;DHT22;10200;49.232;9.222;2023-06-01T04:19:28;15.00;85.40
20081;DHT22;10200;49.232;9.222;2023-06-01T04:21:54;15.00;86.00
20081;DHT22;10200;49.232;9.222;2023-06-01T04:24:21;15.20;85.60
20081;DHT22;10200;49.232;9.222;2023-06-01T04:26:46;15.20;85.20
20081;DHT22;10200;49.232;9.222;2023-06-01T04:29:12;15.30;84.90
20081;DHT22;10200;49.232;9.222;2023-06-01T04:31:38;15.40;84.70
20081;DHT22;10200;49.232;9.222;2023-06-01T04:34:04;15.50;84.80
20081;DHT22;10200;49.232;9.222;2023-06-01T04:36:34;15.60;85.30
20081;DHT22;10200;49.232;9.222;2023-06-01T04:39:05;15.70;84.80
20081;DHT22;10200;49.232;9.222;2023-06-01T04:41:32;16.30;85.70
20081;DHT22;10200;49.232;9.222;2023-06-01T04:43:58;17.40;84.70
20081;DHT22;10200;49.232;9.222;2023-06-01T04:46:25;18.80;81.20
20081;DHT22;10200;49.232;9.222;2023-06-01T04:48:52;20.20;75.40
20081;DHT22;10200;49.232;9.222;2023-06-01T04:51:18;21.50;69.30
20081;DHT22;10200;49.232;9.222;2023-06-01T04:53:51;22.40;64.80
20081;DHT22;10200;49.232;9.222;2023-06-01T04:56:26;22.80;60.80
20081;DHT22;10200;49.232;9.222;2023-06-01T04:58:53;23.00;58.30
20081;DHT22;10200;49.232;9.222;2023-06-01T05:01:21;22.90;57.10
20081;DHT22;10200;49.232;9.222;2023-06-01T05:03:50;22.70;56.90
20081;DHT22;10200;49.232;9.222;2023-06-01T05:06:17;22.40;56.90
20081;DHT22;10200;49.232;9.222;2023-06-01T05:08:43;22.00;57.50
20081;DHT22;10200;49.232;9.222;2023-06-01T05:11:09;21.70;58.30
20081;DHT22;10200;49.232;9.222;2023-06-01T05:13:36;21.30;58.80
20081;DHT22;10200;49.232;9.222;2023-06-01T05:16:06;21.10;59.30
20081;DHT22;10200;49.232;9.222;2023-06-01T05:18:35;20.90;60.20
20081;DHT22;10200;49.232;9.222;2023-06-01T05:21:02;20.60;60.20
20081;DHT22;10200;49.232;9.222;2023-06-01T05:23:29;20.40;60.40
20081;DHT22;10200;49.232;9.222;2023-06-01T05:25:55;20.40;61.80
20081;DHT22;10200;49.232;9.222;2023-06-01T05:28:32;20.40;62.40
20081;DHT22;10200;49.232;9.222;2023-06-01T05:30:58;20.40;62.90
20081;DHT22;10200;49.232;9.222;2023-06-01T05:33:24;20.50;63.80
20081;DHT22;10200;49.232;9.222;2023-06-01T05:35:49;20.60;63.20
20081;DHT22;10200;49.232;9.222;2023-06-01T05:38:15;20.80;62.40
20081;DHT22;10200;49.232;9.222;2023-06-01T05:40:40;20.80;62.10
20081;DHT22;10200;49.232;9.222;2023-06-01T05:43:06;20.90;61.50
20081;DHT22;10200;49.232;9.222;2023-06-01T05:45:33;21.00;61.40
20081;DHT22;10200;49.232;9.222;2023-06-01T05:47:59;21.10;60.40
20081;DHT22;10200;49.232;9.222;2023-06-01T05:50:24;21.20;59.90
20081;DHT22;10200;49.232;9.222;2023-06-01T05:52:51;21.30;59.80
20081;DHT22;10200;49.232;9.222;2023-06-01T05:55:17;21.30;59.50
20081;DHT22;10200;49.232;9.222;2023-06-01T05:57:42;21.60;58.70
20081;DHT22;10200;49.232;9.222;2023-06-01T06:00:08;21.60;58.70
20081;DHT22;10200;49.232;9.222;2023-06-01T06:02:39;21.90;59.20
20081;DHT22;10200;49.232;9.222;2023-06-01T06:05:07;22.20;58.40
20081;DHT22;10200;49.232;9.222;2023-06-01T06:07:33;22.60;57.70
20081;DHT22;10200;49.232;9.222;2023-06-01T06:09:59;22.80;56.70
20081;DHT22;10200;49.232;9.222;2023-06-01T06:12:24;23.00;56.20
20081;DHT22;10200;49.232;9.222;2023-06-01T06:14:50;23.30;55.90
20081;DHT22;10200;49.232;9.222;2023-06-01T06:17:16;23.50;54.50
20081;DHT22;10200;49.232;9.222;2023-06-01T06:19:42;23.70;55.10
20081;DHT22;10200;49.232;9.222;2023-06-01T06:22:13;23.90;54.40
20081;DHT22;10200;49.232;9.222;2023-06-01T06:24:38;23.90;53.40
20081;DHT22;10200;49.232;9.222;2023-06-01T06:27:04;23.90;53.40
20081;DHT22;10200;49.232;9.222;2023-06-01T06:29:31;24.20;53.00
20081;DHT22;10200;49.232;9.222;2023-06-01T06:31:57;24.20;52.80
20081;DHT22;10200;49.232;9.222;2023-06-01T06:34:22;24.40;52.50
20081;DHT22;10200;49.232;9.222;2023-06-01T06:36:48;24.60;51.80
20081;DHT22;10200;49.232;9.222;2023-06-01T06:39:14;24.70;52.60
20081;DHT22;10200;49.232;9.222;2023-06-01T06:41:41;25.10;51.70
20081;DHT22;10200;49.232;9.222;2023-06-01T06:44:07;25.10;50.60
20081;DHT22;10200;49.232;9.222;2023-06-01T06:46:32;25.10;50.80
20081;DHT22;10200;49.232;9.222;2023-06-01T06:48:58;25.30;50.60
20081;DHT22;10200;49.232;9.222;2023-06-01T06:51:24;25.20;50.60
20081;DHT22;10200;49.232;9.222;2023-06-01T06:53:50;25.10;50.00
20081;DHT22;10200;49.232;9.222;2023-06-01T06:56:16;25.30;50.70
20081;DHT22;10200;49.232;9.222;2023-06-01T06:58:41;25.50;50.20
20081;DHT22;10200;49.232;9.222;2023-06-01T07:01:07;25.40;49.80
20081;DHT22;10200;49.232;9.222;2023-06-01T07:03:33;25.50;50.50
20081;DHT22;10200;49.232;9.222;2023-06-01T07:05:59;25.60;50.40
20081;DHT22;10200;49.232;9.222;2023-06-01T07:08:25;25.70;57.40
20081;DHT22;10200;49.232;9.222;2023-06-01T07:10:53;25.80;55.60
20081;DHT22;10200;49.232;9.222;2023-06-01T07:13:19;25.80;61.20
20081;DHT22;10200;49.232;9.222;2023-06-01T07:15:44;25.90;72.20
20081;DHT22;10200;49.232;9.222;2023-06-01T07:18:10;26.20;56.40
20081;DHT22;10200;49.232;9.222;2023-06-01T07:20:36;26.30;91.80
20081;DHT22;10200;49.232;9.222;2023-06-01T07:23:01;26.20;51.40
20081;DHT22;10200;49.232;9.222;2023-06-01T07:25:27;26.40;62.20
20081;DHT22;10200;49.232;9.222;2023-06-01T07:27:52;26.40;48.50
20081;DHT22;10200;49.232;9.222;2023-06-01T07:30:21;26.60;49.10
20081;DHT22;10200;49.232;9.222;2023-06-01T07:32:47;26.60;48.50
20081;DHT22;10200;49.232;9.222;2023-06-01T07:35:12;26.90;48.50
20081;DHT22;10200;49.232;9.222;2023-06-01T07:37:39;27.00;47.30
20081;DHT22;10200;49.232;9.222;2023-06-01T07:40:06;27.00;47.30
20081;DHT22;10200;49.232;9.222;2023-06-01T07:42:32;27.00;48.20
20081;DHT22;10200;49.232;9.222;2023-06-01T07:44:57;27.00;48.00
20081;DHT22;10200;49.232;9.222;2023-06-01T07:47:23;27.30;47.40
20081;DHT22;10200;49.232;9.222;2023-06-01T07:49:50;27.40;47.70
20081;DHT22;10200;49.232;9.222;2023-06-01T07:52:16;27.70;47.10
20081;DHT22;10200;49.232;9.222;2023-06-01T07:54:43;27.60;46.30
20081;DHT22;10200;49.232;9.222;2023-06-01T07:57:09;27.60;46.70
20081;DHT22;10200;49.232;9.222;2023-06-01T07:59:34;27.80;46.70
20081;DHT22;10200;49.232;9.222;2023-06-01T08:02:00;28.20;47.30
20081;DHT22;10200;49.232;9.222;2023-06-01T08:04:27;28.30;45.40
20081;DHT22;10200;49.232;9.222;2023-06-01T08:06:58;28.70;46.00
20081;DHT22;10200;49.232;9.222;2023-06-01T08:09:24;28.70;44.20
20081;DHT22;10200;49.232;9.222;2023-06-01T08:11:50;28.80;44.30
20081;DHT22;10200;49.232;9.222;2023-06-01T08:14:16;29.00;44.20
20081;DHT22;10200;49.232;9.222;2023-06-01T08:16:42;29.00;43.00
20081;DHT22;10200;49.232;9.222;2023-06-01T08:19:08;29.10;43.90
20081;DHT22;10200;49.232;9.222;2023-06-01T08:21:34;29.00;41.90
20081;DHT22;10200;49.232;9.222;2023-06-01T08:24:00;29.00;43.30
20081;DHT22;10200;49.232;9.222;2023-06-01T08:26:27;29.10;42.00
20081;DHT22;10200;49.232;9.222;2023-06-01T08:28:53;29.10;42.70
20081;DHT22;10200;49.232;9.222;2023-06-01T08:33:45;29.30;42.00
20081;DHT22;10200;49.232;9.222;2023-06-01T08:36:11;29.30;42.50
20081;DHT22;10200;49.232;9.222;2023-06-01T08:38:37;29.40;41.80
20081;DHT22;10200;49.232;9.222;2023-06-01T08:43:50;29.70;41.80
20081;DHT22;10200;49.232;9.222;2023-06-01T08:46:20;29.80;42.00
20081;DHT22;10200;49.232;9.222;2023-06-01T08:48:48;30.00;43.20
20081;DHT22;10200;49.232;9.222;2023-06-01T08:51:16;30.30;41.90
20081;DHT22;10200;49.232;9.222;2023-06-01T08:53:42;30.60;41.00
20081;DHT22;10200;49.232;9.222;2023-06-01T08:56:10;30.20;41.10
20081;DHT22;10200;49.232;9.222;2023-06-01T08:58:36;30.20;41.70
20081;DHT22;10200;49.232;9.222;2023-06-01T09:01:02;30.20;40.40
20081;DHT22;10200;49.232;9.222;2023-06-01T09:03:28;29.90;40.40
20081;DHT22;10200;49.232;9.222;2023-06-01T09:05:53;30.00;41.90
20081;DHT22;10200;49.232;9.222;2023-06-01T09:08:19;30.20;41.60
20081;DHT22;10200;49.232;9.222;2023-06-01T09:10:47;30.40;42.30
20081;DHT22;10200;49.232;9.222;2023-06-01T09:13:13;30.50;40.70
20081;DHT22;10200;49.232;9.222;2023-06-01T09:15:50;30.70;41.60
20081;DHT22;10200;49.232;9.222;2023-06-01T09:18:17;31.00;40.50
20081;DHT22;10200;49.232;9.222;2023-06-01T09:20:43;31.10;40.60
20081;DHT22;10200;49.232;9.222;2023-06-01T09:23:09;31.40;40.80
20081;DHT22;10200;49.232;9.222;2023-06-01T09:25:35;31.30;40.00
20081;DHT22;10200;49.232;9.222;2023-06-01T09:28:01;31.40;40.50
20081;DHT22;10200;49.232;9.222;2023-06-01T09:30:43;31.10;38.20
20081;DHT22;10200;49.232;9.222;2023-06-01T09:35:43;31.30;38.40
20081;DHT22;10200;49.232;9.222;2023-06-01T09:38:10;31.30;37.90
20081;DHT22;10200;49.232;9.222;2023-06-01T09:40:41;31.40;38.50
20081;DHT22;10200;49.232;9.222;2023-06-01T09:43:21;31.40;38.80
20081;DHT22;10200;49.232;9.222;2023-06-01T09:48:34;31.00;37.70
20081;DHT22;10200;49.232;9.222;2023-06-01T09:51:00;31.00;38.20
20081;DHT22;10200;49.232;9.222;2023-06-01T09:53:25;30.80;38.90
20081;DHT22;10200;49.232;9.222;2023-06-01T09:55:59;30.60;38.50
20081;DHT22;10200;49.232;9.222;2023-06-01T09:58:26;30.70;39.10
20081;DHT22;10200;49.232;9.222;2023-06-01T10:00:52;30.80;39.70
20081;DHT22;10200;49.232;9.222;2023-06-01T10:03:19;30.70;38.00
20081;DHT22;10200;49.232;9.222;2023-06-01T10:05:46;30.70;38.80
20081;DHT22;10200;49.232;9.222;2023-06-01T10:08:13;30.80;37.70
20081;DHT22;10200;49.232;9.222;2023-06-01T10:10:45;30.70;36.60
20081;DHT22;10200;49.232;9.222;2023-06-01T10:13:11;30.90;37.10
20081;DHT22;10200;49.232;9.222;2023-06-01T10:15:37;30.90;34.90
20081;DHT22;10200;49.232;9.222;2023-06-01T10:18:04;31.00;35.70
20081;DHT22;10200;49.232;9.222;2023-06-01T10:20:37;31.30;35.30
20081;DHT22;10200;49.232;9.222;2023-06-01T10:23:04;31.50;36.30
20081;DHT22;10200;49.232;9.222;2023-06-01T10:25:39;31.70;35.30
20081;DHT22;10200;49.232;9.222;2023-06-01T10:28:10;31.60;34.40
20081;DHT22;10200;49.232;9.222;2023-06-01T10:30:36;31.70;35.40
20081;DHT22;10200;49.232;9.222;2023-06-01T10:33:02;31.50;34.00
20081;DHT22;10200;49.232;9.222;2023-06-01T10:40:40;31.10;35.10
20081;DHT22;10200;49.232;9.222;2023-06-01T10:43:07;30.90;34.50
20081;DHT22;10200;49.232;9.222;2023-06-01T10:48:12;31.40;34.50
20081;DHT22;10200;49.232;9.222;2023-06-01T10:50:40;31.50;34.50
20081;DHT22;10200;49.232;9.222;2023-06-01T10:53:26;31.50;33.70
20081;DHT22;10200;49.232;9.222;2023-06-01T10:56:23;31.40;33.50
20081;DHT22;10200;49.232;9.222;2023-06-01T11:01:41;31.10;33.90
20081;DHT22;10200;49.232;9.222;2023-06-01T11:04:07;31.10;35.00
20081;DHT22;10200;49.232;9.222;2023-06-01T11:06:39;31.00;33.60
20081;DHT22;10200;49.232;9.222;2023-06-01T11:09:06;30.90;34.90
20081;DHT22;10200;49.232;9.222;2023-06-01T11:14:18;30.80;35.40
20081;DHT22;10200;49.232;9.222;2023-06-01T11:16:44;31.10;35.40
20081;DHT22;10200;49.232;9.222;2023-06-01T11:19:10;31.20;35.40
20081;DHT22;10200;49.232;9.222;2023-06-01T11:21:42;31.40;35.00
20081;DHT22;10200;49.232;9.222;2023-06-01T11:24:18;31.30;35.10
20081;DHT22;10200;49.232;9.222;2023-06-01T11:26:44;31.20;35.20
20081;DHT22;10200;49.232;9.222;2023-06-01T11:34:07;31.10;34.20
20081;DHT22;10200;49.232;9.222;2023-06-01T11:36:43;31.10;35.10
20081;DHT22;10200;49.232;9.222;2023-06-01T11:39:38;30.90;34.50
20081;DHT22;10200;49.232;9.222;2023-06-01T11:42:16;31.00;34.90
20081;DHT22;10200;49.232;9.222;2023-06-01T11:44:44;31.10;34.90
20081;DHT22;10200;49.232;9.222;2023-06-01T11:47:10;31.30;35.20
20081;DHT22;10200;49.232;9.222;2023-06-01T11:49:41;31.30;34.00
20081;DHT22;10200;49.232;9.222;2023-06-01T11:52:09;31.20;34.40
20081;DHT22;10200;49.232;9.222;2023-06-01T11:54:35;31.10;34.10
20081;DHT22;10200;49.232;9.222;2023-06-01T11:57:03;31.10;33.70
20081;DHT22;10200;49.232;9.222;2023-06-01T11:59:42;31.10;33.50
20081;DHT22;10200;49.232;9.222;2023-06-01T12:02:18;31.10;33.50
20081;DHT22;10200;49.232;9.222;2023-06-01T12:04:56;31.30;33.10
20081;DHT22;10200;49.232;9.222;2023-06-01T12:07:23;31.30;33.10
20081;DHT22;10200;49.232;9.222;2023-06-01T12:09:50;31.20;33.40
20081;DHT22;10200;49.232;9.222;2023-06-01T12:12:16;31.20;34.10
20081;DHT22;10200;49.232;9.222;2023-06-01T12:14:42;31.10;33.10
20081;DHT22;10200;49.232;9.222;2023-06-01T12:17:08;31.00;33.90
20081;DHT22;10200;49.232;9.222;2023-06-01T12:19:47;31.00;34.20
20081;DHT22;10200;49.232;9.222;2023-06-01T12:22:13;30.90;33.30
20081;DHT22;10200;49.232;9.222;2023-06-01T12:24:40;30.70;34.30
20081;DHT22;10200;49.232;9.222;2023-06-01T12:27:14;31.00;35.10
20081;DHT22;10200;49.232;9.222;2023-06-01T12:29:41;31.10;34.50
20081;DHT22;10200;49.232;9.222;2023-06-01T12:32:08;31.30;34.40
20081;DHT22;10200;49.232;9.222;2023-06-01T12:34:35;31.30;33.20
20081;DHT22;10200;49.232;9.222;2023-06-01T12:37:20;31.20;32.60
20081;DHT22;10200;49.232;9.222;2023-06-01T12:39:52;31.10;32.50
20081;DHT22;10200;49.232;9.222;2023-06-01T12:42:20;31.30;33.10
20081;DHT22;10200;49.232;9.222;2023-06-01T12:44:59;31.40;32.80
20081;DHT22;10200;49.232;9.222;2023-06-01T12:47:25;31.40;32.20
20081;DHT22;10200;49.232;9.222;2023-06-01T12:50:04;31.10;31.90
20081;DHT22;10200;49.232;9.222;2023-06-01T12:52:30;31.10;32.90
20081;DHT22;10200;49.232;9.222;2023-06-01T12:54:56;31.00;32.80
20081;DHT22;10200;49.232;9.222;2023-06-01T12:57:22;30.90;33.40
20081;DHT22;10200;49.232;9.222;2023-06-01T12:59:48;31.00;33.50
20081;DHT22;10200;49.232;9.222;2023-06-01T13:02:14;31.00;32.40
20081;DHT22;10200;49.232;9.222;2023-06-01T13:04:40;31.00;32.90
20081;DHT22;10200;49.232;9.222;2023-06-01T13:07:06;31.10;32.50
20081;DHT22;10200;49.232;9.222;2023-06-01T13:09:31;31.00;32.70
20081;DHT22;10200;49.232;9.222;2023-06-01T13:11:57;30.90;32.20
20081;DHT22;10200;49.232;9.222;2023-06-01T13:14:23;30.80;31.80
20081;DHT22;10200;49.232;9.222;2023-06-01T13:16:49;30.70;32.70
20081;DHT22;10200;49.232;9.222;2023-06-01T13:19:15;30.80;32.80
20081;DHT22;10200;49.232;9.222;2023-06-01T13:21:40;30.80;32.60
20081;DHT22;10200;49.232;9.222;2023-06-01T13:24:06;30.80;32.60
20081;DHT22;10200;49.232;9.222;2023-06-01T13:26:32;31.00;33.40
20081;DHT22;10200;49.232;9.222;2023-06-01T13:28:57;31.10;32.90
20081;DHT22;10200;49.232;9.222;2023-06-01T13:31:23;31.10;31.10
20081;DHT22;10200;49.232;9.222;2023-06-01T13:33:49;31.10;32.10
20081;DHT22;10200;49.232;9.222;2023-06-01T13:36:14;31.00;31.80
20081;DHT22;10200;49.232;9.222;2023-06-01T13:38:40;31.00;32.30
20081;DHT22;10200;49.232;9.222;2023-06-01T13:41:06;31.00;32.00
20081;DHT22;10200;49.232;9.222;2023-06-01T13:43:32;30.90;32.90
20081;DHT22;10200;49.232;9.222;2023-06-01T13:45:57;30.90;32.50
20081;DHT22;10200;49.232;9.222;2023-06-01T13:48:23;30.90;32.50
20081;DHT22;10200;49.232;9.222;2023-06-01T13:50:50;30.80;32.20
20081;DHT22;10200;49.232;9.222;2023-06-01T13:53:17;30.90;33.60
20081;DHT22;10200;49.232;9.222;2023-06-01T13:55:42;30.90;33.10
20081;DHT22;10200;49.232;9.222;2023-06-01T13:58:08;30.90;32.80
20081;DHT22;10200;49.232;9.222;2023-06-01T14:00:33;30.80;32.30
20081;DHT22;10200;49.232;9.222;2023-06-01T14:02:59;30.70;33.20
20081;DHT22;10200;49.232;9.222;2023-06-01T14:05:25;30.60;33.30
20081;DHT22;10200;49.232;9.222;2023-06-01T14:07:50;30.60;32.90
20081;DHT22;10200;49.232;9.222;2023-06-01T14:10:16;30.50;32.60
20081;DHT22;10200;49.232;9.222;2023-06-01T14:12:42;30.40;32.10
20081;DHT22;10200;49.232;9.222;2023-06-01T14:15:08;30.50;32.60
20081;DHT22;10200;49.232;9.222;2023-06-01T14:17:34;30.70;33.20
20081;DHT22;10200;49.232;9.222;2023-06-01T14:20:00;30.70;32.30
20081;DHT22;10200;49.232;9.222;2023-06-01T14:22:25;30.80;33.00
20081;DHT22;10200;49.232;9.222;2023-06-01T14:24:51;30.90;32.80
20081;DHT22;10200;49.232;9.222;2023-06-01T14:27:17;31.00;32.50
20081;DHT22;10200;49.232;9.222;2023-06-01T14:29:42;31.10;33.70
20081;DHT22;10200;49.232;9.222;2023-06-01T14:32:08;31.20;33.30
20081;DHT22;10200;49.232;9.222;2023-06-01T14:34:34;31.20;32.90
20081;DHT22;10200;49.232;9.222;2023-06-01T14:36:59;31.20;32.60
20081;DHT22;10200;49.232;9.222;2023-06-01T14:39:25;31.10;33.10
20081;DHT22;10200;49.232;9.222;2023-06-01T14:41:51;30.90;32.40
20081;DHT22;10200;49.232;9.222;2023-06-01T14:44:16;30.70;32.80
20081;DHT22;10200;49.232;9.222;2023-06-01T14:46:42;30.60;32.70
20081;DHT22;10200;49.232;9.222;2023-06-01T14:49:08;30.70;33.40
20081;DHT22;10200;49.232;9.222;2023-06-01T14:51:34;30.70;32.60
20081;DHT22;10200;49.232;9.222;2023-06-01T14:54:00;30.80;33.10
20081;DHT22;10200;49.232;9.222;2023-06-01T14:56:25;30.80;32.70
20081;DHT22;10200;49.232;9.222;2023-06-01T14:58:52;30.80;32.80
20081;DHT22;10200;49.232;9.222;2023-06-01T15:01:17;30.90;32.90
20081;DHT22;10200;49.232;9.222;2023-06-01T15:03:43;30.90;33.50
20081;DHT22;10200;49.232;9.222;2023-06-01T15:06:08;31.00;33.40
20081;DHT22;10200;49.232;9.222;2023-06-01T15:08:34;31.00;32.70
20081;DHT22;10200;49.232;9.222;2023-06-01T15:11:00;31.00;34.10
20081;DHT22;10200;49.232;9.222;2023-06-01T15:13:25;31.00;34.10
20081;DHT22;10200;49.232;9.222;2023-06-01T15:15:51;31.00;33.40
20081;DHT22;10200;49.232;9.222;2023-06-01T15:18:17;31.00;34.00
20081;DHT22;10200;49.232;9.222;2023-06-01T15:20:43;31.00;34.30
20081;DHT22;10200;49.232;9.222;2023-06-01T15:23:09;31.10;34.50
20081;DHT22;10200;49.232;9.222;2023-06-01T15:25:34;31.00;33.90
20081;DHT22;10200;49.232;9.222;2023-06-01T15:28:00;31.00;34.20
20081;DHT22;10200;49.232;9.222;2023-06-01T15:30:26;31.00;34.20
20081;DHT22;10200;49.232;9.222;2023-06-01T15:32:54;31.00;34.50
20081;DHT22;10200;49.232;9.222;2023-06-01T15:35:20;31.00;34.00
20081;DHT22;10200;49.232;9.222;2023-06-01T15:37:45;30.90;33.90
20081;DHT22;10200;49.232;9.222;2023-06-01T15:40:13;30.80;33.70
20081;DHT22;10200;49.232;9.222;2023-06-01T15:42:39;30.60;34.30
20081;DHT22;10200;49.232;9.222;2023-06-01T15:45:06;30.50;34.40
20081;DHT22;10200;49.232;9.222;2023-06-01T15:47:32;30.30;34.80
20081;DHT22;10200;49.232;9.222;2023-06-01T15:49:58;30.40;35.40
20081;DHT22;10200;49.232;9.222;2023-06-01T15:52:23;30.30;34.40
20081;DHT22;10200;49.232;9.222;2023-06-01T15:54:49;30.20;34.40
20081;DHT22;10200;49.232;9.222;2023-06-01T15:57:14;30.20;34.80
20081;DHT22;10200;49.232;9.222;2023-06-01T15:59:40;30.20;34.60
20081;DHT22;10200;49.232;9.222;2023-06-01T16:02:06;30.30;35.60
20081;DHT22;10200;49.232;9.222;2023-06-01T16:04:31;30.30;35.20
20081;DHT22;10200;49.232;9.222;2023-06-01T16:06:57;30.30;34.50
20081;DHT22;10200;49.232;9.222;2023-06-01T16:09:23;30.20;34.60
20081;DHT22;10200;49.232;9.222;2023-06-01T16:11:48;30.20;35.20
20081;DHT22;10200;49.232;9.222;2023-06-01T16:14:14;30.20;34.60